createdAt,value
2019-02-21T00:09:10.792Z,10.77
2019-02-21T00:19:11.434Z,9.47
2019-02-21T00:29:12.384Z,7.77
2019-02-21T00:39:13.362Z,8.83
2019-02-21T00:49:14.003Z,9.33
2019-02-21T00:59:14.694Z,8.50
2019-02-21T01:09:15.614Z,7.57
2019-02-21T01:19:16.482Z,7.83
2019-02-21T01:29:17.398Z,7.23
2019-02-21T01:39:18.386Z,7.07
2019-02-21T01:49:19.017Z,8.20
2019-02-21T01:59:20.986Z,8.70
2019-02-21T02:09:21.877Z,6.87
2019-02-21T02:19:22.544Z,7.47
2019-02-21T02:29:23.210Z,7.27
2019-02-21T02:39:23.873Z,8.77
2019-02-21T02:49:24.554Z,8.97
2019-02-21T02:59:25.470Z,8.47
2019-02-21T03:09:26.383Z,9.03
2019-02-21T03:19:27.285Z,9.20
2019-02-21T03:29:28.007Z,7.93
2019-02-21T03:39:28.765Z,7.27
2019-02-21T03:49:29.498Z,9.57
2019-02-21T03:59:30.432Z,9.13
2019-02-21T04:09:31.389Z,9.50
2019-02-21T04:19:32.056Z,10.50
2019-02-21T04:29:33.157Z,11.00
2019-02-21T04:39:33.827Z,11.63
2019-02-21T04:49:34.535Z,11.57
2019-02-21T04:59:45.327Z,11.27
2019-02-21T05:09:57.314Z,11.30
2019-02-21T05:19:52.192Z,9.87
2019-02-21T05:29:53.952Z,9.97
2019-02-21T05:39:58.719Z,9.37
2019-02-21T05:49:59.923Z,10.23
2019-02-21T06:00:03.387Z,9.33
2019-02-21T06:10:04.037Z,8.27
2019-02-21T06:20:05.217Z,9.70
2019-02-21T06:30:06.619Z,14.30
2019-02-21T06:40:07.685Z,10.90
2019-02-21T06:50:08.673Z,11.60
2019-02-21T07:00:15.273Z,10.00
2019-02-21T07:10:15.962Z,10.30
2019-02-21T07:20:16.936Z,14.40
2019-02-21T07:30:20.347Z,10.90
2019-02-21T07:40:20.583Z,10.87
2019-02-21T07:50:23.208Z,10.47
2019-02-21T08:00:24.284Z,11.40
2019-02-21T08:10:33.523Z,11.63
2019-02-21T08:20:33.927Z,18.67
2019-02-21T08:30:33.106Z,10.97
2019-02-21T08:40:33.931Z,11.13
2019-02-21T08:50:34.682Z,11.30
2019-02-21T09:00:39.286Z,11.17
2019-02-21T09:10:40.089Z,15.23
2019-02-21T09:20:40.736Z,16.63
2019-02-21T09:30:41.902Z,12.57
2019-02-21T09:40:45.804Z,14.07
2019-02-21T09:50:46.711Z,15.47
2019-02-21T10:00:47.773Z,40.83
2019-02-21T10:10:51.676Z,22.93
2019-02-21T10:20:52.408Z,18.10
2019-02-21T10:30:57.121Z,16.80
2019-02-21T10:41:04.847Z,12.53
2019-02-21T10:51:05.487Z,13.33
2019-02-21T11:01:10.681Z,14.47
2019-02-21T11:11:11.324Z,14.97
2019-02-21T11:21:13.083Z,13.03
2019-02-21T11:31:16.130Z,13.67
2019-02-21T11:41:16.800Z,13.63
2019-02-21T11:51:18.807Z,15.77
2019-02-21T12:01:19.480Z,16.73
2019-02-21T12:11:20.208Z,18.00
2019-02-21T12:21:20.845Z,19.27
2019-02-21T12:31:21.544Z,18.40
2019-02-21T12:41:22.470Z,19.33
2019-02-21T12:51:23.450Z,17.90
2019-02-21T13:01:24.416Z,17.10
2019-02-21T13:11:26.090Z,17.73
2019-02-21T13:21:29.077Z,16.03
2019-02-21T13:31:29.785Z,20.53
2019-02-21T13:41:30.718Z,16.30
2019-02-21T13:51:33.706Z,15.60
2019-02-21T14:01:34.722Z,15.10
2019-02-21T14:11:35.362Z,16.17
2019-02-21T14:21:43.740Z,19.50
2019-02-21T14:31:44.651Z,15.23
2019-02-21T14:41:45.489Z,14.83
2019-02-21T14:51:46.537Z,15.70
2019-02-21T15:01:47.419Z,15.30
2019-02-21T15:11:48.456Z,19.97
2019-02-21T15:21:53.136Z,15.97
2019-02-21T15:31:53.760Z,15.67
2019-02-21T15:41:54.533Z,14.87
2019-02-21T15:51:55.411Z,16.03
2019-02-21T16:01:56.064Z,16.87
2019-02-21T16:11:56.851Z,16.40
2019-02-21T16:21:57.889Z,15.93
2019-02-21T16:31:58.595Z,17.30
2019-02-21T16:41:59.549Z,15.30
2019-02-21T16:52:04.999Z,17.60
2019-02-21T17:02:06.728Z,16.10
2019-02-21T17:12:07.400Z,16.53
2019-02-21T17:22:08.089Z,16.40
2019-02-21T17:32:08.759Z,16.63
2019-02-21T17:42:09.473Z,15.73
2019-02-21T17:52:10.156Z,16.03
2019-02-21T18:02:16.590Z,16.67
2019-02-21T18:12:22.140Z,17.87
2019-02-21T18:22:30.722Z,18.13
2019-02-21T18:32:35.287Z,18.10
2019-02-21T18:42:35.910Z,17.10
2019-02-21T18:52:36.579Z,18.50
2019-02-21T19:02:37.712Z,16.63
2019-02-21T19:12:43.052Z,15.27
2019-02-21T19:22:45.774Z,18.70
2019-02-21T19:32:47.626Z,19.83
2019-02-21T19:42:48.568Z,19.80
2019-02-21T19:52:49.583Z,20.30
2019-02-21T20:02:50.311Z,21.37
2019-02-21T20:12:51.036Z,20.50
2019-02-21T20:22:51.735Z,20.00
2019-02-21T20:32:54.477Z,20.50
2019-02-21T20:42:55.105Z,20.63
2019-02-21T20:52:55.735Z,22.57
2019-02-21T21:02:56.401Z,23.07
2019-02-21T21:12:57.333Z,25.50
2019-02-21T21:22:59.016Z,26.27
2019-02-21T21:33:05.727Z,24.77
2019-02-21T21:43:06.429Z,25.60
2019-02-21T21:53:08.404Z,27.13
2019-02-21T22:03:09.111Z,28.73
2019-02-21T22:13:09.786Z,30.40
2019-02-21T22:23:18.514Z,30.60
2019-02-21T22:33:19.146Z,30.70
2019-02-21T22:43:19.779Z,31.30
2019-02-21T22:53:23.481Z,33.10
2019-02-21T23:03:28.223Z,34.07
2019-02-21T23:13:28.854Z,33.17
2019-02-21T23:23:35.567Z,33.40
2019-02-21T23:33:42.356Z,33.57
2019-02-21T23:43:43.260Z,34.40
2019-02-21T23:53:43.968Z,30.07
